Time;durP1;ratioP1;P1;durP2;ratioP2;P2;SDS_P1;SDS_P2;PMS_P1;PMS_P2;Temp;Humidity;BMP_temperature;BMP_pressure;BME280_temperature;BME280_humidity;BME280_pressure;Samples;Min_cycle;Max_cycle;Signal;HPM_P1;HPM_P2
2022/08/13 00:00:21;;;;;;;;;6.00;6.00;;;;;29.74;23.04;100690.03;2105148;27;47486;-62
2022/08/13 00:01:23;;;;;;;;;5.60;5.60;;;;;29.73;22.89;100681.94;2104343;27;45884;-62
2022/08/13 00:02:23;;;;;;;;;7.40;7.40;;;;;29.72;23.15;100680.25;2103119;28;47561;-64
2022/08/13 00:03:24;;;;;;;;;8.00;8.00;;;;;29.72;23.01;100685.72;2103431;28;47537;-63
2022/08/13 00:04:26;;;;;;;;;6.25;6.25;;;;;29.70;23.02;100676.81;2097180;28;47633;-64
2022/08/13 00:05:26;;;;;;;;;6.40;6.00;;;;;29.70;23.23;100685.00;2104686;28;46506;-65
2022/08/13 00:07:38;;;;;;;;;6.20;6.00;;;;;29.67;23.09;100686.19;2103910;28;48293;-64
2022/08/13 00:08:39;;;;;;;;;6.00;6.00;;;;;29.65;23.39;100674.56;2104602;27;47473;-64
2022/08/13 00:09:42;;;;;;;;;5.20;4.60;;;;;29.65;23.09;100680.03;2103798;28;47187;-62
2022/08/13 00:10:42;;;;;;;;;5.40;5.40;;;;;29.64;23.14;100674.72;2104171;28;47179;-63
2022/08/13 00:13:04;;;;;;;;;6.80;6.80;;;;;29.62;23.11;100683.09;2104487;27;47509;-63
2022/08/13 00:14:05;;;;;;;;;7.00;7.00;;;;;29.61;23.34;100680.50;2097936;28;47576;-62
2022/08/13 00:15:18;;;;;;;;;6.50;6.50;;;;;29.59;22.97;100683.38;2103975;28;46743;-64
2022/08/13 00:16:19;;;;;;;;;5.00;4.20;;;;;29.58;23.42;100678.91;2104867;27;48158;-64
2022/08/13 00:17:20;;;;;;;;;6.00;6.00;;;;;29.57;23.38;100682.69;2104630;27;47490;-64
2022/08/13 00:18:22;;;;;;;;;4.80;4.80;;;;;29.56;23.48;100687.28;2104381;27;48150;-63
2022/08/13 00:19:26;;;;;;;;;7.00;7.00;;;;;29.54;23.18;100681.13;2104194;27;48178;-65
2022/08/13 00:20:31;;;;;;;;;6.20;6.20;;;;;29.54;23.31;100681.13;2104556;27;47854;-64
2022/08/13 00:21:32;;;;;;;;;5.80;5.80;;;;;29.53;23.14;100682.13;2104337;27;47752;-64
2022/08/13 00:22:32;;;;;;;;;6.00;6.00;;;;;29.53;23.27;100681.28;2104159;27;47609;-64
2022/08/13 00:23:33;;;;;;;;;5.75;5.75;;;;;29.52;23.15;100680.44;2104471;27;47505;-63
2022/08/13 00:24:34;;;;;;;;;5.50;5.50;;;;;29.50;23.15;100679.72;2103534;28;47453;-64
2022/08/13 00:25:35;;;;;;;;;6.75;6.75;;;;;29.51;23.31;100688.78;2103711;28;47678;-64
2022/08/13 00:26:36;;;;;;;;;5.00;5.00;;;;;29.50;23.50;100676.13;2104599;27;47704;-64
2022/08/13 00:27:36;;;;;;;;;6.00;6.00;;;;;29.48;23.37;100684.50;2104416;27;48021;-63
2022/08/13 00:28:37;;;;;;;;;6.00;6.00;;;;;29.48;23.33;100684.50;2095720;28;47773;-64
2022/08/13 00:29:38;;;;;;;;;5.00;5.00;;;;;29.48;23.18;100681.75;2095544;28;47616;-65
2022/08/13 00:30:38;;;;;;;;;6.00;5.60;;;;;29.47;23.32;100670.94;2104411;27;48148;-65
2022/08/13 00:31:39;;;;;;;;;6.75;6.75;;;;;29.45;23.35;100684.75;2104379;27;46695;-63
2022/08/13 00:32:40;;;;;;;;;6.20;6.20;;;;;29.46;23.13;100682.88;2103488;28;47945;-64
2022/08/13 00:33:40;;;;;;;;;6.25;6.25;;;;;29.44;23.23;100684.91;2103839;28;47530;-64
2022/08/13 00:34:41;;;;;;;;;6.00;6.00;;;;;29.43;23.23;100684.06;2104270;28;46354;-63
2022/08/13 00:35:42;;;;;;;;;6.25;6.25;;;;;29.42;23.13;100690.53;2104244;27;47883;-63
2022/08/13 00:36:43;;;;;;;;;7.80;7.00;;;;;29.41;23.62;100680.63;2104649;27;47654;-63
2022/08/13 00:37:44;;;;;;;;;6.50;6.50;;;;;29.40;23.56;100684.38;2104081;27;47689;-63
2022/08/13 00:38:45;;;;;;;;;6.00;6.00;;;;;29.41;23.40;100682.50;2104660;27;47460;-63
2022/08/13 00:39:46;;;;;;;;;6.00;6.00;;;;;29.41;23.33;100682.50;2104997;27;45572;-62
2022/08/13 00:40:49;;;;;;;;;4.25;4.25;;;;;29.40;23.43;100686.25;2104603;27;47709;-63
2022/08/13 00:41:51;;;;;;;;;8.00;7.00;;;;;29.38;23.28;100675.47;2104347;27;47879;-63
2022/08/13 00:42:52;;;;;;;;;6.80;5.60;;;;;29.39;23.33;100687.28;2104138;27;48071;-64
2022/08/13 00:43:53;;;;;;;;;5.60;5.60;;;;;29.38;23.56;100683.69;2119827;27;47696;-64
2022/08/13 00:44:54;;;;;;;;;6.00;6.00;;;;;29.36;23.55;100685.72;2119869;27;47729;-63
2022/08/13 00:45:54;;;;;;;;;7.00;6.00;;;;;29.35;23.17;100686.72;2104189;27;47514;-64
2022/08/13 00:48:41;;;;;;;;;4.50;4.50;;;;;29.36;23.57;100679.38;2104696;27;47524;-64
2022/08/13 00:49:34;;;;;;;;;6.00;5.20;;;;;29.34;23.55;100684.13;2104536;27;48406;-64
2022/08/13 00:50:35;;;;;;;;;6.00;6.00;;;;;29.31;23.68;100682.56;2104416;27;47586;-64
2022/08/13 00:51:37;;;;;;;;;7.80;7.20;;;;;29.28;23.58;100678.28;2104497;27;47809;-63
2022/08/13 00:52:40;;;;;;;;;6.40;6.40;;;;;29.29;23.57;100679.13;2104262;27;47581;-64
2022/08/13 00:53:43;;;;;;;;;6.20;6.20;;;;;29.26;23.52;100677.56;2104121;27;47350;-64
2022/08/13 00:54:44;;;;;;;;;6.00;6.00;;;;;29.28;23.82;100685.63;2104512;27;47421;-64
2022/08/13 00:55:48;;;;;;;;;6.00;6.00;;;;;29.26;23.76;100685.78;2103671;28;47054;-64
2022/08/13 00:56:52;;;;;;;;;6.80;6.00;;;;;29.25;23.77;100681.31;2103452;28;47474;-64
2022/08/13 00:57:52;;;;;;;;;6.60;6.60;;;;;29.24;23.61;100679.59;2111880;27;47337;-63
2022/08/13 00:58:53;;;;;;;;;7.50;7.50;;;;;29.24;23.82;100685.06;2111819;27;47992;-63
2022/08/13 00:59:53;;;;;;;;;7.75;7.75;;;;;29.24;23.70;100678.75;2104159;27;47933;-64
2022/08/13 01:00:58;;;;;;;;;8.75;8.00;;;;;29.20;23.85;100680.91;2104064;27;48201;-63
2022/08/13 01:01:59;;;;;;;;;6.40;6.40;;;;;29.20;23.98;100674.59;2104456;27;47939;-63
2022/08/13 01:02:59;;;;;;;;;4.75;4.75;;;;;29.17;23.95;100677.63;2104006;27;47511;-64
2022/08/13 01:04:02;;;;;;;;;7.75;6.75;;;;;29.18;23.65;100682.09;2104358;27;47788;-61
2022/08/13 01:05:02;;;;;;;;;6.00;6.00;;;;;29.17;24.07;100683.97;2103958;27;47489;-63
2022/08/13 01:06:06;;;;;;;;;9.00;8.50;;;;;29.17;24.01;100675.75;2104468;27;47351;-63
2022/08/13 01:07:06;;;;;;;;;5.60;5.60;;;;;29.17;24.06;100683.09;2104047;27;47842;-64
2022/08/13 01:08:08;;;;;;;;;8.75;8.75;;;;;29.17;24.00;100683.09;2111146;27;47954;-63
2022/08/13 01:09:12;;;;;;;;;8.80;8.80;;;;;29.16;24.08;100681.38;2111372;27;47875;-63
2022/08/13 01:10:15;;;;;;;;;7.20;7.20;;;;;29.15;24.25;100680.53;2104306;28;46662;-63
2022/08/13 01:11:17;;;;;;;;;6.40;5.40;;;;;29.14;24.08;100684.28;2104616;27;47340;-62
2022/08/13 01:12:20;;;;;;;;;8.40;8.40;;;;;29.13;24.14;100684.44;2104209;27;47752;-62
2022/08/13 01:13:25;;;;;;;;;8.00;8.00;;;;;29.11;24.41;100678.25;2101985;28;47501;-63
2022/08/13 01:14:31;;;;;;;;;11.80;9.40;;;;;29.10;23.89;100682.88;2104213;27;47668;-65
2022/08/13 01:15:31;;;;;;;;;8.20;7.80;;;;;29.11;23.92;100689.19;2104095;28;47361;-64
2022/08/13 01:16:36;;;;;;;;;9.75;9.75;;;;;29.10;24.25;100691.06;2103421;28;47497;-64
2022/08/13 01:17:38;;;;;;;;;7.80;6.40;;;;;29.09;24.20;100689.31;2103992;27;47265;-64
2022/08/13 01:18:42;;;;;;;;;7.80;7.80;;;;;29.08;23.89;100687.59;2104070;27;48467;-63
2022/08/13 01:19:44;;;;;;;;;8.20;8.20;;;;;29.06;23.62;100684.16;2094297;28;47584;-63
2022/08/13 01:20:58;;;;;;;;;9.00;7.60;;;;;29.06;24.07;100695.09;2094263;28;47446;-62
2022/08/13 01:21:59;;;;;;;;;8.20;7.20;;;;;29.05;23.71;100690.66;2095701;28;47713;-63
2022/08/13 01:23:05;;;;;;;;;7.40;7.40;;;;;29.04;23.92;100686.19;2103500;28;47596;-64
2022/08/13 01:24:10;;;;;;;;;7.60;7.60;;;;;29.04;23.90;100690.81;2103425;28;48015;-63
2022/08/13 01:25:10;;;;;;;;;8.20;7.20;;;;;29.02;23.70;100693.69;2111349;27;47827;-62
2022/08/13 01:26:16;;;;;;;;;7.50;7.50;;;;;29.02;23.98;100691.81;2111629;27;47675;-63
2022/08/13 01:27:21;;;;;;;;;7.40;7.40;;;;;29.02;24.08;100699.16;2104285;27;47770;-63
2022/08/13 01:28:27;;;;;;;;;7.40;7.00;;;;;28.99;24.05;100692.13;2119755;27;47391;-63
2022/08/13 01:29:27;;;;;;;;;7.60;6.20;;;;;28.98;24.04;100692.28;2116588;27;47633;-64
2022/08/13 01:30:29;;;;;;;;;9.00;8.00;;;;;28.97;24.42;100688.69;2104357;28;47573;-65
2022/08/13 01:31:31;;;;;;;;;9.40;8.00;;;;;28.97;24.13;100694.16;2103175;28;47102;-65
2022/08/13 01:32:37;;;;;;;;;9.80;9.80;;;;;28.95;24.54;100687.09;2103454;28;47778;-64
2022/08/13 01:33:41;;;;;;;;;11.60;11.60;;;;;28.93;24.71;100687.25;2111562;27;47092;-63
2022/08/13 01:34:45;;;;;;;;;11.00;10.20;;;;;28.92;24.85;100684.69;2111541;27;47975;-63
2022/08/13 01:35:46;;;;;;;;;13.40;12.40;;;;;28.92;24.95;100690.16;2103937;27;47527;-63
2022/08/13 01:36:47;;;;;;;;;12.40;11.60;;;;;28.90;24.70;100686.72;2104374;27;47866;-64
2022/08/13 01:37:53;;;;;;;;;11.75;11.75;;;;;28.89;25.27;100685.84;2105287;27;47937;-63
2022/08/13 01:38:53;;;;;;;;;12.00;11.60;;;;;28.88;25.15;100696.94;2105177;27;47315;-64
2022/08/13 01:39:54;;;;;;;;;16.25;12.00;;;;;28.87;25.33;100687.88;2105447;27;47622;-63
2022/08/13 01:40:54;;;;;;;;;14.25;13.00;;;;;28.87;24.85;100685.16;2105122;27;48502;-63
2022/08/13 01:41:56;;;;;;;;;13.50;13.50;;;;;28.86;25.17;100688.00;2105358;27;47949;-63
2022/08/13 01:42:58;;;;;;;;;12.60;12.60;;;;;28.87;25.27;100697.94;2113504;27;47297;-64
2022/08/13 01:44:04;;;;;;;;;10.00;10.00;;;;;28.86;25.88;100696.22;2112984;27;47649;-64
2022/08/13 01:45:05;;;;;;;;;12.40;12.40;;;;;28.86;25.49;100699.78;2105376;27;47542;-64
2022/08/13 01:46:10;;;;;;;;;11.40;11.40;;;;;28.85;25.53;100686.28;2105310;27;47318;-64
2022/08/13 01:51:31;;;;;;;;;12.60;12.60;;;;;28.76;25.99;100689.94;2092725;28;47590;-66
2022/08/13 01:52:33;;;;;;;;;12.00;12.00;;;;;28.73;26.08;100694.69;2095652;28;47394;-64
2022/08/13 01:53:34;;;;;;;;;10.20;10.00;;;;;28.73;25.73;100688.38;2095685;28;47299;-63
2022/08/13 01:54:37;;;;;;;;;14.20;13.40;;;;;28.73;25.98;100697.41;2096119;28;47861;-64
2022/08/13 01:55:42;;;;;;;;;10.80;9.80;;;;;28.73;26.12;100694.69;2095917;28;47636;-64
2022/08/13 01:56:42;;;;;;;;;10.40;7.60;;;;;28.72;25.92;100692.97;2087480;28;47404;-64
2022/08/13 01:57:44;;;;;;;;;10.50;10.50;;;;;28.72;25.97;100698.44;2087499;28;47459;-64
2022/08/13 01:58:47;;;;;;;;;10.20;10.20;;;;;28.70;25.71;100691.38;2095941;28;47866;-64
2022/08/13 01:59:47;;;;;;;;;10.40;10.40;;;;;28.69;26.12;100692.38;2091743;28;48229;-64
2022/08/13 02:01:00;;;;;;;;;11.75;11.75;;;;;28.69;26.46;100697.84;2096042;28;47938;-63
2022/08/13 02:02:02;;;;;;;;;11.80;11.80;;;;;28.67;25.92;100697.13;2093459;28;47657;-64
2022/08/13 02:03:05;;;;;;;;;13.60;12.60;;;;;28.66;26.25;100696.28;2095988;28;48352;-64
2022/08/13 02:04:06;;;;;;;;;12.00;12.00;;;;;28.64;26.33;100695.56;2095885;28;47547;-63
2022/08/13 02:05:10;;;;;;;;;10.50;10.50;;;;;28.64;26.14;100700.19;2096240;28;47836;-63
2022/08/13 02:06:11;;;;;;;;;9.00;9.00;;;;;28.63;26.38;100695.72;2095582;28;47644;-63
2022/08/13 02:07:13;;;;;;;;;10.20;10.00;;;;;28.63;26.47;100696.59;2095691;28;47631;-63
2022/08/13 02:08:18;;;;;;;;;12.60;12.00;;;;;28.63;26.02;100701.19;2095739;28;47940;-62
2022/08/13 02:09:19;;;;;;;;;8.60;8.60;;;;;28.61;26.34;100697.75;2095790;28;47782;-65
2022/08/13 02:10:21;;;;;;;;;11.40;11.20;;;;;28.60;26.48;100696.91;2095988;28;47777;-63
2022/08/13 02:11:21;;;;;;;;;12.20;12.00;;;;;28.59;26.74;100699.78;2095379;28;47504;-64
2022/08/13 02:12:21;;;;;;;;;10.00;10.00;;;;;28.56;26.35;100692.72;2095966;28;46825;-63
2022/08/13 02:13:28;;;;;;;;;10.50;10.50;;;;;28.54;26.49;100691.16;2095628;28;47405;-64
2022/08/13 02:14:28;;;;;;;;;9.60;9.60;;;;;28.51;26.85;100696.94;2095459;28;47953;-63
2022/08/13 02:15:29;;;;;;;;;13.25;13.25;;;;;28.48;26.72;100699.97;2087315;28;47571;-63
2022/08/13 02:16:32;;;;;;;;;9.00;9.00;;;;;28.43;26.85;100700.38;2084845;28;47420;-64
2022/08/13 02:17:41;;;;;;;;;11.00;11.00;;;;;28.39;27.07;100698.97;2095417;28;47445;-64
2022/08/13 02:18:41;;;;;;;;;10.60;10.60;;;;;28.35;26.73;100695.69;2087503;28;47229;-64
2022/08/13 02:19:43;;;;;;;;;11.00;10.50;;;;;28.35;26.85;100695.69;2079081;28;47683;-64
2022/08/13 02:20:46;;;;;;;;;12.80;11.00;;;;;28.35;26.69;100697.56;2087436;28;47775;-63
2022/08/13 02:21:46;;;;;;;;;8.40;8.40;;;;;28.33;26.62;100694.09;2078844;28;47706;-64
2022/08/13 02:22:49;;;;;;;;;9.50;8.00;;;;;28.32;26.80;100700.56;2079012;28;47280;-65
2022/08/13 02:23:57;;;;;;;;;10.20;9.60;;;;;28.31;27.00;100698.84;2103216;28;47815;-64
2022/08/13 02:24:59;;;;;;;;;7.80;7.80;;;;;28.31;26.76;100699.72;2105316;27;48181;-64
2022/08/13 02:26:02;;;;;;;;;9.60;9.60;;;;;28.31;27.00;100696.13;2104947;27;47864;-64
2022/08/13 02:27:03;;;;;;;;;10.60;10.60;;;;;28.29;26.63;100698.13;2104657;28;47403;-64
2022/08/13 02:28:04;;;;;;;;;9.40;9.40;;;;;28.26;26.66;100692.94;2096249;28;47805;-64
2022/08/13 02:29:05;;;;;;;;;11.75;11.00;;;;;28.26;27.10;100687.50;2104272;27;47451;-64
2022/08/13 02:30:09;;;;;;;;;11.60;11.60;;;;;28.24;26.96;100695.84;2112607;27;47748;-63
2022/08/13 02:31:10;;;;;;;;;10.40;10.20;;;;;28.24;27.11;100694.97;2104140;28;47816;-65
2022/08/13 02:32:11;;;;;;;;;10.25;9.50;;;;;28.22;27.24;100695.13;2105314;27;47886;-65
2022/08/13 02:33:12;;;;;;;;;11.00;11.00;;;;;28.20;26.75;100699.84;2112272;27;47650;-63
2022/08/13 02:34:13;;;;;;;;;11.40;11.40;;;;;28.19;27.23;100689.06;2103691;28;47431;-64
2022/08/13 02:35:15;;;;;;;;;10.25;10.25;;;;;28.19;27.08;100694.53;2104481;28;47556;-64
2022/08/13 02:36:17;;;;;;;;;10.20;9.60;;;;;28.19;27.08;100695.41;2104801;27;47514;-64
2022/08/13 02:37:21;;;;;;;;;11.00;10.20;;;;;28.18;27.12;100695.53;2104502;28;47581;-64
2022/08/13 02:38:22;;;;;;;;;8.60;8.60;;;;;28.18;26.74;100692.81;2104661;28;47112;-63
2022/08/13 02:39:23;;;;;;;;;9.75;9.75;;;;;28.17;26.81;100693.81;2104221;28;47978;-64
2022/08/13 02:41:43;;;;;;;;;8.40;7.00;;;;;28.14;27.40;100695.00;2110186;27;47592;-63
2022/08/13 02:42:43;;;;;;;;;11.50;10.50;;;;;28.14;27.31;100690.41;2104919;27;47683;-63
2022/08/13 02:43:46;;;;;;;;;8.75;8.75;;;;;28.13;26.80;100694.13;2112980;27;47474;-64
2022/08/13 02:44:48;;;;;;;;;9.60;9.00;;;;;28.12;26.89;100695.13;2112604;27;48032;-64
2022/08/13 02:45:49;;;;;;;;;9.40;9.40;;;;;28.13;26.58;100698.72;2105438;27;48094;-65
2022/08/13 02:46:50;;;;;;;;;9.25;9.25;;;;;28.11;26.69;100690.69;2104871;27;48013;-64
2022/08/13 02:47:52;;;;;;;;;9.40;9.40;;;;;28.12;26.99;100691.56;2105086;27;48150;-63
2022/08/13 02:48:52;;;;;;;;;8.00;8.00;;;;;28.11;26.84;100695.28;2103700;27;47258;-64
2022/08/13 02:49:53;;;;;;;;;9.50;8.25;;;;;28.09;26.58;100698.16;2105034;27;47771;-64
2022/08/13 02:50:55;;;;;;;;;10.75;10.75;;;;;28.09;27.24;100700.91;2096527;28;47262;-65
2022/08/13 02:51:55;;;;;;;;;10.80;9.60;;;;;28.09;27.06;100703.63;2101829;28;47604;-63
2022/08/13 02:52:56;;;;;;;;;10.75;10.75;;;;;28.09;26.96;100706.34;2104821;27;47817;-63
2022/08/13 02:54:00;;;;;;;;;9.00;9.00;;;;;28.08;26.84;100696.44;2105362;27;47934;-63
2022/08/13 02:55:00;;;;;;;;;9.00;9.00;;;;;28.07;26.96;100702.03;2104653;27;47894;-62
2022/08/13 02:56:00;;;;;;;;;9.75;8.50;;;;;28.06;27.19;100697.59;2105567;27;45774;-64
2022/08/13 02:57:01;;;;;;;;;9.00;9.00;;;;;28.06;26.51;100703.03;2104864;27;47027;-63
2022/08/13 02:58:03;;;;;;;;;9.75;9.75;;;;;28.07;27.08;100697.44;2104237;28;47098;-63
2022/08/13 02:59:08;;;;;;;;;10.40;10.40;;;;;28.05;27.15;100691.25;2104761;27;47670;-63
2022/08/13 03:00:10;;;;;;;;;11.00;8.20;;;;;28.07;26.81;100699.28;2104859;28;47385;-64
2022/08/13 03:01:13;;;;;;;;;9.40;9.40;;;;;28.06;27.45;100697.59;2111793;27;47527;-65
2022/08/13 03:02:14;;;;;;;;;9.80;9.80;;;;;28.05;27.09;100693.13;2112056;27;47702;-63
2022/08/13 03:03:19;;;;;;;;;8.00;8.00;;;;;28.04;26.65;100696.88;2104964;28;47551;-62
2022/08/13 03:04:19;;;;;;;;;7.80;7.80;;;;;28.03;26.83;100690.56;2104980;27;47594;-64
2022/08/13 03:05:19;;;;;;;;;10.75;9.75;;;;;28.01;26.46;100691.72;2105029;27;47784;-64
2022/08/13 03:06:21;;;;;;;;;10.25;10.00;;;;;28.02;26.94;100698.88;2105006;27;47563;-63
2022/08/13 03:07:22;;;;;;;;;9.20;8.60;;;;;27.99;27.17;100694.59;2104875;27;47284;-63
2022/08/13 03:08:22;;;;;;;;;9.00;9.00;;;;;27.98;27.26;100694.75;2104966;27;47943;-63
2022/08/13 03:09:23;;;;;;;;;7.50;7.50;;;;;27.96;27.07;100691.31;2104675;27;47405;-62
2022/08/13 03:10:25;;;;;;;;;8.25;8.25;;;;;27.96;27.02;100688.56;2104960;27;47509;-63
2022/08/13 03:11:26;;;;;;;;;9.00;8.00;;;;;27.95;26.70;100693.19;2103035;28;47862;-63
2022/08/13 03:12:30;;;;;;;;;7.50;7.50;;;;;27.94;27.49;100687.84;2103834;28;47606;-64
2022/08/13 03:13:36;;;;;;;;;8.40;8.20;;;;;27.94;27.14;100691.41;2104860;27;47175;-63
2022/08/13 03:14:36;;;;;;;;;7.00;7.00;;;;;27.93;27.38;100686.97;2104648;27;47792;-63
2022/08/13 03:15:38;;;;;;;;;8.00;8.00;;;;;27.93;27.09;100689.69;2104837;27;47196;-64
2022/08/13 03:16:39;;;;;;;;;10.60;9.60;;;;;27.94;27.10;100687.84;2104783;27;47616;-63
2022/08/13 03:17:40;;;;;;;;;10.80;9.80;;;;;27.93;26.73;100683.38;2104541;27;47628;-63
2022/08/13 03:18:41;;;;;;;;;8.80;8.80;;;;;27.93;26.95;100684.25;2105131;27;47496;-64
2022/08/13 03:19:41;;;;;;;;;9.50;9.50;;;;;27.94;26.97;100685.09;2103778;28;47719;-63
2022/08/13 03:20:42;;;;;;;;;10.00;10.00;;;;;27.94;27.06;100687.84;2104203;28;47373;-64
2022/08/13 03:21:43;;;;;;;;;8.75;8.75;;;;;27.94;27.61;100685.09;2105129;27;46525;-63
2022/08/13 03:22:54;;;;;;;;;8.00;8.00;;;;;27.93;26.94;100691.56;2104783;27;47623;-64
2022/08/13 03:23:55;;;;;;;;;11.40;10.40;;;;;27.94;27.35;100691.41;2104885;27;47164;-64
2022/08/13 03:24:55;;;;;;;;;8.75;8.75;;;;;27.94;27.40;100696.00;2104765;27;47224;-65
2022/08/13 03:25:55;;;;;;;;;8.00;8.00;;;;;27.95;27.84;100697.75;2104602;27;47728;-63
2022/08/13 03:26:58;;;;;;;;;9.25;8.75;;;;;27.93;27.62;100688.84;2104914;27;47861;-64
2022/08/13 03:27:58;;;;;;;;;8.00;7.00;;;;;27.91;27.75;100688.13;2104161;28;47131;-63
2022/08/13 03:29:00;;;;;;;;;8.50;8.50;;;;;27.91;27.55;100691.72;2104181;28;47885;-64
2022/08/13 03:30:00;;;;;;;;;9.40;9.40;;;;;27.89;27.54;100687.44;2104471;27;47717;-64
2022/08/13 03:31:01;;;;;;;;;7.00;7.00;;;;;27.87;26.92;100690.31;2104475;27;47579;-64
2022/08/13 03:32:02;;;;;;;;;9.60;9.60;;;;;27.86;26.85;100699.50;2104770;27;47643;-63
2022/08/13 03:33:08;;;;;;;;;9.75;9.75;;;;;27.85;27.69;100692.31;2103325;28;47502;-63
2022/08/13 03:34:10;;;;;;;;;8.80;8.80;;;;;27.83;27.43;100694.34;2104008;28;48090;-61
2022/08/13 03:35:14;;;;;;;;;10.40;9.40;;;;;27.82;27.53;100693.47;2104686;27;48041;-63
2022/08/13 03:36:14;;;;;;;;;12.40;12.00;;;;;27.81;27.62;100696.31;2104705;27;48138;-64
2022/08/13 03:37:15;;;;;;;;;10.25;10.00;;;;;27.81;27.31;100697.19;2104715;27;47554;-63
2022/08/13 03:38:15;;;;;;;;;8.00;8.00;;;;;27.79;27.63;100692.88;2104590;27;47689;-63
2022/08/13 03:39:16;;;;;;;;;8.25;7.50;;;;;27.78;27.51;100693.88;2104500;27;47470;-63
2022/08/13 03:40:16;;;;;;;;;10.00;10.00;;;;;27.77;27.25;100692.16;2104506;27;48021;-63
2022/08/13 03:41:17;;;;;;;;;8.00;8.00;;;;;27.75;27.39;100689.59;2105277;27;48167;-63
2022/08/13 03:42:17;;;;;;;;;7.50;7.50;;;;;27.75;27.80;100686.00;2104698;27;47955;-63
2022/08/13 03:43:19;;;;;;;;;10.50;9.25;;;;;27.75;27.64;100694.19;2104782;27;47391;-63
2022/08/13 03:44:20;;;;;;;;;11.20;10.00;;;;;27.73;27.81;100688.88;2104099;28;47863;-63
2022/08/13 03:45:24;;;;;;;;;10.00;10.00;;;;;27.71;27.26;100690.91;2103684;28;48145;-62
2022/08/13 03:46:26;;;;;;;;;9.00;9.00;;;;;27.70;27.59;100693.78;2104935;27;48264;-63
2022/08/13 03:47:26;;;;;;;;;11.00;11.00;;;;;27.68;27.67;100688.44;2104629;27;47649;-63
2022/08/13 03:48:26;;;;;;;;;7.25;7.25;;;;;27.68;27.25;100691.16;2105124;27;47295;-63
2022/08/13 03:49:27;;;;;;;;;9.50;9.50;;;;;27.68;27.63;100696.63;2104406;27;47365;-64
2022/08/13 03:50:27;;;;;;;;;7.75;7.75;;;;;27.66;27.84;100695.03;2104716;27;46177;-63
2022/08/13 03:51:28;;;;;;;;;10.75;10.75;;;;;27.64;27.28;100692.47;2104706;27;47784;-64
2022/08/13 03:52:30;;;;;;;;;9.00;9.00;;;;;27.65;27.71;100690.59;2104622;27;48335;-64
2022/08/13 03:53:30;;;;;;;;;8.00;8.00;;;;;27.64;27.92;100697.91;2104498;27;47836;-64
2022/08/13 03:54:31;;;;;;;;;8.00;8.00;;;;;27.63;27.43;100690.72;2104799;27;47024;-63
2022/08/13 03:55:33;;;;;;;;;10.75;10.75;;;;;27.60;27.50;100693.72;2104131;27;47687;-64
2022/08/13 03:56:33;;;;;;;;;9.20;9.20;;;;;27.59;28.24;100694.75;2104583;27;48052;-64
2022/08/13 03:57:34;;;;;;;;;10.00;10.00;;;;;27.59;27.40;100700.19;2104683;27;47990;-64
2022/08/13 03:58:37;;;;;;;;;9.75;9.75;;;;;27.61;27.95;100700.03;2105008;27;47764;-62
2022/08/13 03:59:38;;;;;;;;;9.80;8.00;;;;;27.60;27.84;100693.72;2104218;27;47787;-64
2022/08/13 04:00:42;;;;;;;;;9.60;9.60;;;;;27.60;27.91;100688.28;2104386;27;47252;-64
2022/08/13 04:01:42;;;;;;;;;10.60;9.60;;;;;27.60;27.85;100696.47;2104382;27;47791;-64
2022/08/13 04:02:43;;;;;;;;;8.75;8.75;;;;;27.59;28.04;100692.00;2104577;27;47341;-64
2022/08/13 04:03:45;;;;;;;;;10.50;9.50;;;;;27.58;28.19;100689.44;2104502;27;47211;-63
2022/08/13 04:04:50;;;;;;;;;8.40;8.40;;;;;27.57;28.29;100694.03;2104738;27;47369;-65
2022/08/13 04:05:58;;;;;;;;;10.40;10.40;;;;;27.54;28.19;100692.41;2104511;27;47568;-63
2022/08/13 04:06:59;;;;;;;;;7.00;7.00;;;;;27.53;27.87;100690.69;2103806;28;48185;-63
2022/08/13 04:07:59;;;;;;;;;9.40;9.00;;;;;27.52;27.79;100697.16;2104729;28;47601;-65
2022/08/13 04:09:02;;;;;;;;;8.00;8.00;;;;;27.50;27.86;100692.84;2104654;27;47618;-63
2022/08/13 04:10:04;;;;;;;;;8.20;8.20;;;;;27.49;28.26;100689.28;2104532;27;45240;-64
2022/08/13 04:11:08;;;;;;;;;8.00;8.00;;;;;27.48;28.17;100693.00;2103885;28;47794;-63
2022/08/13 04:12:11;;;;;;;;;8.60;8.60;;;;;27.48;27.94;100701.19;2104008;28;47277;-63
2022/08/13 04:13:19;;;;;;;;;9.60;9.00;;;;;27.47;27.48;100695.88;2104359;27;48075;-63
2022/08/13 04:14:19;;;;;;;;;8.20;8.20;;;;;27.47;27.78;100696.75;2104305;27;47651;-62
2022/08/13 04:15:19;;;;;;;;;8.25;8.25;;;;;27.47;27.56;100696.75;2104569;27;47776;-64
2022/08/13 04:16:22;;;;;;;;;7.50;7.50;;;;;27.47;27.81;100690.44;2104322;27;47925;-63
2022/08/13 04:17:23;;;;;;;;;8.20;8.20;;;;;27.46;27.60;100695.03;2104674;27;47756;-64
2022/08/13 04:18:23;;;;;;;;;9.75;8.75;;;;;27.46;27.41;100697.75;2104244;27;48142;-63
2022/08/13 04:19:25;;;;;;;;;9.00;9.00;;;;;27.46;27.70;100695.03;2104611;27;47088;-63
2022/08/13 04:20:26;;;;;;;;;9.00;9.00;;;;;27.45;28.14;100690.56;2104237;27;48016;-65
2022/08/13 04:21:31;;;;;;;;;7.75;7.75;;;;;27.43;27.44;100692.56;2104506;27;47095;-63
2022/08/13 04:22:33;;;;;;;;;10.00;10.00;;;;;27.45;27.54;100700.63;2104388;27;48030;-63
2022/08/13 04:23:34;;;;;;;;;8.80;8.80;;;;;27.44;27.78;100698.88;2104072;28;47477;-63
2022/08/13 04:24:35;;;;;;;;;8.00;8.00;;;;;27.45;27.59;100700.63;2103745;28;48425;-63
2022/08/13 04:25:35;;;;;;;;;9.75;9.75;;;;;27.44;27.98;100698.88;2103671;28;47520;-63
2022/08/13 04:26:35;;;;;;;;;10.00;10.00;;;;;27.42;27.69;100696.28;2103836;28;47646;-63
2022/08/13 04:27:36;;;;;;;;;7.75;7.75;;;;;27.42;27.84;100696.28;2103827;28;47421;-63
2022/08/13 04:28:41;;;;;;;;;9.40;9.40;;;;;27.40;27.72;100695.56;2103863;28;47650;-63
2022/08/13 04:29:42;;;;;;;;;10.00;10.00;;;;;27.40;28.09;100697.44;2103984;28;47197;-62
2022/08/13 04:30:43;;;;;;;;;8.00;8.00;;;;;27.39;27.89;100698.44;2103325;28;47472;-64
2022/08/13 04:31:45;;;;;;;;;8.20;8.20;;;;;27.39;27.85;100698.44;2104517;27;47791;-63
2022/08/13 04:32:47;;;;;;;;;11.00;11.00;;;;;27.38;28.20;100694.00;2104319;27;47667;-62
2022/08/13 04:33:47;;;;;;;;;6.80;6.80;;;;;27.38;27.90;100694.00;2104310;27;47793;-64
2022/08/13 04:34:48;;;;;;;;;8.00;8.00;;;;;27.38;27.93;100696.72;2111432;27;47547;-64
2022/08/13 04:35:48;;;;;;;;;7.00;7.00;;;;;27.38;27.43;100700.31;2111395;27;47952;-64
2022/08/13 04:36:49;;;;;;;;;8.00;8.00;;;;;27.38;27.71;100696.72;2104157;27;47475;-64
2022/08/13 04:37:51;;;;;;;;;9.25;9.25;;;;;27.39;27.58;100690.28;2104946;27;47529;-63
2022/08/13 04:38:51;;;;;;;;;9.00;9.00;;;;;27.40;28.06;100700.16;2104178;27;46867;-63
2022/08/13 04:39:53;;;;;;;;;9.75;9.75;;;;;27.40;27.86;100703.75;2104282;27;47995;-64
2022/08/13 04:40:54;;;;;;;;;9.40;9.40;;;;;27.40;28.24;100690.13;2103683;28;47845;-64
2022/08/13 04:41:54;;;;;;;;;10.75;9.50;;;;;27.40;27.97;100697.44;2103574;28;47573;-64
2022/08/13 04:42:54;;;;;;;;;7.50;7.50;;;;;27.40;27.92;100698.28;2104436;27;47418;-63
2022/08/13 04:43:55;;;;;;;;;7.00;7.00;;;;;27.39;28.33;100696.56;2104742;27;46814;-63
2022/08/13 04:44:55;;;;;;;;;7.50;7.50;;;;;27.37;28.18;100692.28;2104321;27;47232;-64
2022/08/13 04:45:59;;;;;;;;;10.25;8.50;;;;;27.35;28.46;100688.84;2104288;27;45853;-64
2022/08/13 04:47:00;;;;;;;;;8.00;8.00;;;;;27.33;27.85;100685.41;2094339;28;46075;-62
2022/08/13 04:48:07;;;;;;;;;9.00;9.00;;;;;27.30;28.09;100688.38;2094764;28;47338;-63
2022/08/13 04:49:10;;;;;;;;;7.80;7.80;;;;;27.27;28.16;100690.41;2102732;28;47313;-64
2022/08/13 04:50:11;;;;;;;;;8.60;8.60;;;;;27.24;27.91;100685.25;2111773;27;46180;-64
2022/08/13 04:51:14;;;;;;;;;9.40;9.40;;;;;27.23;27.99;100694.41;2112166;27;47684;-63
2022/08/13 04:52:14;;;;;;;;;8.60;8.60;;;;;27.21;27.79;100688.25;2104263;27;47712;-63
2022/08/13 04:53:28;;;;;;;;;7.00;7.00;;;;;27.22;28.08;100691.84;2104072;27;47195;-64
2022/08/13 04:54:28;;;;;;;;;9.40;9.40;;;;;27.21;28.61;100692.84;2104029;27;47439;-63
2022/08/13 04:55:30;;;;;;;;;9.00;9.00;;;;;27.19;28.66;100694.84;2104145;27;47849;-64
2022/08/13 04:56:30;;;;;;;;;6.00;6.00;;;;;27.17;28.14;100694.97;2104228;27;47603;-63